Terminal Aerodrome Forecast
Issued by NWS

Current Version | Previous Version | Text Only | Print | Product List | Glossary Off
Versions: 1 2 3 4 5 6 7 8 9 10 11 12 13 14 15 16 17 18 19 20 21

000
FTUS41 KILN 190818 AAA
TAFLUK
TAF AMD
KLUK 190818Z 1908/2006 23004KT P6SM OVC016
      TEMPO 1908/1910 5SM BR OVC009
     FM191000 VRB03KT 3SM BR OVC009
     FM191500 26005KT P6SM BKN015
     FM192000 23006KT P6SM SCT025
     FM200000 22003KT P6SM SCT250
     FM200500 00000KT 4SM BR SCT250=

USA.gov is the U.S. government's official web portal to all federal, state and local government web resources and services.